sensor_id;sensor_type;location;lat;lon;timestamp;pressure;altitude;pressure_sealevel;temperature;humidity
48800;BME280;34611;47.964;7.982;2023-01-28T00:02:01;97162.34;;;9.02;49.87
48800;BME280;34611;47.964;7.982;2023-01-28T00:09:01;97163.19;;;9.02;49.65
48800;BME280;34611;47.964;7.982;2023-01-28T00:16:04;97157.16;;;9.02;49.74
48800;BME280;34611;47.964;7.982;2023-01-28T00:23:06;97157.38;;;8.99;49.58
48800;BME280;34611;47.964;7.982;2023-01-28T00:30:06;97157.38;;;8.99;49.51
48800;BME280;34611;47.964;7.982;2023-01-28T00:37:09;97152.41;;;8.96;49.53
48800;BME280;34611;47.964;7.982;2023-01-28T00:44:10;97143.00;;;8.95;49.36
48800;BME280;34611;47.964;7.982;2023-01-28T00:51:11;97146.41;;;8.95;49.46
48800;BME280;34611;47.964;7.982;2023-01-28T00:58:12;97137.81;;;8.95;49.25
48800;BME280;34611;47.964;7.982;2023-01-28T01:05:12;97145.78;;;8.91;49.25
48800;BME280;34611;47.964;7.982;2023-01-28T01:12:13;97154.50;;;8.90;49.32
48800;BME280;34611;47.964;7.982;2023-01-28T01:19:13;97143.19;;;8.91;49.19
48800;BME280;34611;47.964;7.982;2023-01-28T01:26:14;97132.72;;;8.93;49.39
48800;BME280;34611;47.964;7.982;2023-01-28T01:33:14;97145.19;;;8.88;49.31
48800;BME280;34611;47.964;7.982;2023-01-28T01:40:15;97142.72;;;8.86;49.65
48800;BME280;34611;47.964;7.982;2023-01-28T01:47:16;97148.84;;;8.85;49.65
48800;BME280;34611;47.964;7.982;2023-01-28T01:54:17;97149.53;;;8.87;49.50
48800;BME280;34611;47.964;7.982;2023-01-28T02:01:23;97148.13;;;8.83;49.57
48800;BME280;34611;47.964;7.982;2023-01-28T02:08:24;97158.28;;;8.86;49.35
48800;BME280;34611;47.964;7.982;2023-01-28T02:15:24;97156.72;;;8.84;49.42
48800;BME280;34611;47.964;7.982;2023-01-28T02:29:43;97153.41;;;8.82;49.46
48800;BME280;34611;47.964;7.982;2023-01-28T02:36:54;97158.59;;;8.82;49.42
48800;BME280;34611;47.964;7.982;2023-01-28T02:43:57;97148.34;;;8.80;49.62
48800;BME280;34611;47.964;7.982;2023-01-28T02:51:02;97150.22;;;8.78;49.56
48800;BME280;34611;47.964;7.982;2023-01-28T03:05:19;97162.13;;;8.81;49.46
48800;BME280;34611;47.964;7.982;2023-01-28T03:12:21;97152.91;;;8.77;49.38
48800;BME280;34611;47.964;7.982;2023-01-28T03:19:42;97150.44;;;8.75;49.38
48800;BME280;34611;47.964;7.982;2023-01-28T03:34:35;97165.75;;;8.78;49.47
48800;BME280;34611;47.964;7.982;2023-01-28T03:41:59;97173.06;;;8.73;49.36
48800;BME280;34611;47.964;7.982;2023-01-28T03:49:00;97171.28;;;8.74;49.14
48800;BME280;34611;47.964;7.982;2023-01-28T03:56:00;97173.34;;;8.68;49.24
48800;BME280;34611;47.964;7.982;2023-01-28T04:03:01;97176.56;;;8.72;49.05
48800;BME280;34611;47.964;7.982;2023-01-28T04:10:01;97171.38;;;8.72;49.20
48800;BME280;34611;47.964;7.982;2023-01-28T04:17:20;97170.47;;;8.73;49.00
48800;BME280;34611;47.964;7.982;2023-01-28T04:24:21;97172.34;;;8.71;48.95
48800;BME280;34611;47.964;7.982;2023-01-28T04:31:22;97187.03;;;8.70;49.00
48800;BME280;34611;47.964;7.982;2023-01-28T04:38:52;97181.84;;;8.70;48.86
48800;BME280;34611;47.964;7.982;2023-01-28T04:46:01;97192.44;;;8.67;48.84
48800;BME280;34611;47.964;7.982;2023-01-28T04:53:04;97184.78;;;8.66;48.76
48800;BME280;34611;47.964;7.982;2023-01-28T05:00:25;97203.63;;;8.68;48.64
48800;BME280;34611;47.964;7.982;2023-01-28T05:07:25;97205.59;;;8.64;48.68
48800;BME280;34611;47.964;7.982;2023-01-28T05:14:26;97209.78;;;8.67;48.70
48800;BME280;34611;47.964;7.982;2023-01-28T05:21:49;97215.88;;;8.66;48.54
48800;BME280;34611;47.964;7.982;2023-01-28T05:29:12;97221.16;;;8.64;48.76
48800;BME280;34611;47.964;7.982;2023-01-28T05:36:13;97219.63;;;8.62;48.54
48800;BME280;34611;47.964;7.982;2023-01-28T05:43:15;97222.94;;;8.64;48.62
48800;BME280;34611;47.964;7.982;2023-01-28T05:50:25;97223.03;;;8.62;48.58
48800;BME280;34611;47.964;7.982;2023-01-28T05:57:43;97228.22;;;8.62;49.45
48800;BME280;34611;47.964;7.982;2023-01-28T06:04:45;97225.75;;;8.61;48.69
48800;BME280;34611;47.964;7.982;2023-01-28T06:11:46;97230.31;;;8.57;48.59
48800;BME280;34611;47.964;7.982;2023-01-28T06:18:47;97246.78;;;8.56;48.45
48800;BME280;34611;47.964;7.982;2023-01-28T06:25:51;97254.88;;;8.51;48.21
48800;BME280;34611;47.964;7.982;2023-01-28T06:32:52;97261.63;;;8.41;48.99
48800;BME280;34611;47.964;7.982;2023-01-28T06:39:53;97264.50;;;8.37;48.65
48800;BME280;34611;47.964;7.982;2023-01-28T06:46:53;97277.78;;;8.32;48.30
48800;BME280;34611;47.964;7.982;2023-01-28T06:53:53;97280.47;;;8.30;48.12
48800;BME280;34611;47.964;7.982;2023-01-28T07:00:53;97292.72;;;8.41;48.04
48800;BME280;34611;47.964;7.982;2023-01-28T07:07:54;97285.25;;;8.49;48.23
48800;BME280;34611;47.964;7.982;2023-01-28T07:14:54;97301.50;;;8.51;48.25
48800;BME280;34611;47.964;7.982;2023-01-28T07:21:55;97299.34;;;8.45;48.32
48800;BME280;34611;47.964;7.982;2023-01-28T07:28:58;97318.19;;;8.47;48.13
48800;BME280;34611;47.964;7.982;2023-01-28T07:35:59;97318.09;;;8.62;48.99
48800;BME280;34611;47.964;7.982;2023-01-28T07:42:59;97315.25;;;8.39;47.69
48800;BME280;34611;47.964;7.982;2023-01-28T07:50:00;97304.81;;;8.28;47.06
48800;BME280;34611;47.964;7.982;2023-01-28T07:57:01;97310.50;;;8.84;48.29
48800;BME280;34611;47.964;7.982;2023-01-28T08:04:01;97325.31;;;8.95;49.00
48800;BME280;34611;47.964;7.982;2023-01-28T08:11:05;97323.97;;;9.02;49.10
48800;BME280;34611;47.964;7.982;2023-01-28T08:18:06;97331.41;;;9.07;49.46
48800;BME280;34611;47.964;7.982;2023-01-28T08:25:07;97352.78;;;9.10;49.73
48800;BME280;34611;47.964;7.982;2023-01-28T08:32:08;97354.31;;;9.13;49.76
48800;BME280;34611;47.964;7.982;2023-01-28T08:39:08;97360.97;;;9.17;49.95
48800;BME280;34611;47.964;7.982;2023-01-28T08:46:08;97358.13;;;9.20;50.12
48800;BME280;34611;47.964;7.982;2023-01-28T08:53:10;97354.63;;;9.21;50.36
48800;BME280;34611;47.964;7.982;2023-01-28T09:00:11;97347.56;;;9.23;50.35
48800;BME280;34611;47.964;7.982;2023-01-28T09:07:11;97363.84;;;9.25;50.65
48800;BME280;34611;47.964;7.982;2023-01-28T09:14:11;97367.03;;;9.29;50.64
48800;BME280;34611;47.964;7.982;2023-01-28T09:21:12;97369.44;;;9.32;51.43
48800;BME280;34611;47.964;7.982;2023-01-28T09:28:12;97376.38;;;9.31;51.38
48800;BME280;34611;47.964;7.982;2023-01-28T09:35:12;97372.84;;;9.32;51.48
48800;BME280;34611;47.964;7.982;2023-01-28T09:49:26;97388.31;;;9.58;53.15
48800;BME280;34611;47.964;7.982;2023-01-28T09:56:29;97383.56;;;9.52;55.20
48800;BME280;34611;47.964;7.982;2023-01-28T10:10:43;97385.66;;;9.47;53.48
48800;BME280;34611;47.964;7.982;2023-01-28T10:17:49;97391.59;;;9.49;53.25
48800;BME280;34611;47.964;7.982;2023-01-28T10:24:52;97397.50;;;9.51;53.03
48800;BME280;34611;47.964;7.982;2023-01-28T10:39:13;97376.28;;;9.57;53.95
48800;BME280;34611;47.964;7.982;2023-01-28T10:46:21;97385.00;;;9.56;53.67
48800;BME280;34611;47.964;7.982;2023-01-28T10:53:42;97372.88;;;9.57;53.26
48800;BME280;34611;47.964;7.982;2023-01-28T11:00:42;97358.22;;;9.56;53.35
48800;BME280;34611;47.964;7.982;2023-01-28T11:07:43;97346.06;;;9.56;53.16
48800;BME280;34611;47.964;7.982;2023-01-28T11:14:52;97352.13;;;9.57;53.22
48800;BME280;34611;47.964;7.982;2023-01-28T11:21:54;97349.38;;;9.58;53.23
48800;BME280;34611;47.964;7.982;2023-01-28T11:28:55;97354.56;;;9.58;53.28
48800;BME280;34611;47.964;7.982;2023-01-28T11:43:11;97358.84;;;9.59;53.17
48800;BME280;34611;47.964;7.982;2023-01-28T11:50:21;97351.97;;;9.58;53.11
48800;BME280;34611;47.964;7.982;2023-01-28T11:57:25;97349.28;;;9.60;53.27
48800;BME280;34611;47.964;7.982;2023-01-28T12:05:04;97338.09;;;9.59;53.23
48800;BME280;34611;47.964;7.982;2023-01-28T12:12:19;97347.50;;;9.60;53.32
48800;BME280;34611;47.964;7.982;2023-01-28T12:41:22;97350.81;;;9.62;53.41
48800;BME280;34611;47.964;7.982;2023-01-28T12:48:28;97352.59;;;9.62;53.40
48800;BME280;34611;47.964;7.982;2023-01-28T12:55:34;97352.59;;;9.62;53.42
48800;BME280;34611;47.964;7.982;2023-01-28T13:02:41;97353.41;;;9.62;53.48
48800;BME280;34611;47.964;7.982;2023-01-28T13:09:51;97356.00;;;9.62;53.51
48800;BME280;34611;47.964;7.982;2023-01-28T13:16:52;97362.06;;;9.63;53.60
48800;BME280;34611;47.964;7.982;2023-01-28T13:31:04;97369.63;;;9.66;54.18
48800;BME280;34611;47.964;7.982;2023-01-28T13:38:08;97375.63;;;9.66;53.80
48800;BME280;34611;47.964;7.982;2023-01-28T13:52:23;97380.00;;;9.66;53.94
48800;BME280;34611;47.964;7.982;2023-01-28T14:06:51;97382.59;;;9.66;53.77
48800;BME280;34611;47.964;7.982;2023-01-28T14:21:20;97397.13;;;9.68;54.22
48800;BME280;34611;47.964;7.982;2023-01-28T14:28:26;97400.56;;;9.69;54.11
48800;BME280;34611;47.964;7.982;2023-01-28T14:35:32;97412.97;;;9.77;54.01
48800;BME280;34611;47.964;7.982;2023-01-28T14:42:39;97423.59;;;9.73;54.12
48800;BME280;34611;47.964;7.982;2023-01-28T14:56:52;97431.38;;;9.73;53.94
48800;BME280;34611;47.964;7.982;2023-01-28T15:03:59;97436.66;;;9.72;53.94
48800;BME280;34611;47.964;7.982;2023-01-28T15:10:59;97446.97;;;9.73;53.96
48800;BME280;34611;47.964;7.982;2023-01-28T15:18:05;97445.19;;;9.74;54.21
48800;BME280;34611;47.964;7.982;2023-01-28T15:25:19;97463.47;;;9.72;54.14
48800;BME280;34611;47.964;7.982;2023-01-28T15:32:24;97471.97;;;9.75;53.97
48800;BME280;34611;47.964;7.982;2023-01-28T15:39:25;97477.16;;;9.75;54.15
48800;BME280;34611;47.964;7.982;2023-01-28T15:46:26;97482.34;;;9.75;54.20
48800;BME280;34611;47.964;7.982;2023-01-28T15:53:27;97492.97;;;9.71;54.13
48800;BME280;34611;47.964;7.982;2023-01-28T16:00:29;97501.47;;;9.73;54.04
48800;BME280;34611;47.964;7.982;2023-01-28T16:07:30;97507.41;;;9.76;54.35
48800;BME280;34611;47.964;7.982;2023-01-28T16:14:44;97531.47;;;9.78;54.31
48800;BME280;34611;47.964;7.982;2023-01-28T16:21:46;97522.13;;;10.12;54.03
48800;BME280;34611;47.964;7.982;2023-01-28T16:28:46;97528.63;;;9.93;56.44
48800;BME280;34611;47.964;7.982;2023-01-28T16:35:46;97530.94;;;9.85;55.86
48800;BME280;34611;47.964;7.982;2023-01-28T16:42:47;97532.69;;;9.85;55.44
48800;BME280;34611;47.964;7.982;2023-01-28T16:49:47;97529.47;;;9.94;55.59
48800;BME280;34611;47.964;7.982;2023-01-28T16:56:47;97533.44;;;9.87;55.69
48800;BME280;34611;47.964;7.982;2023-01-28T17:03:48;97536.97;;;9.86;55.53
48800;BME280;34611;47.964;7.982;2023-01-28T17:10:54;97536.53;;;9.92;55.97
48800;BME280;34611;47.964;7.982;2023-01-28T17:17:55;97538.63;;;9.87;55.60
48800;BME280;34611;47.964;7.982;2023-01-28T17:24:55;97543.72;;;9.88;55.43
48800;BME280;34611;47.964;7.982;2023-01-28T17:31:55;97552.31;;;9.89;55.37
48800;BME280;34611;47.964;7.982;2023-01-28T17:38:55;97548.72;;;10.16;55.90
48800;BME280;34611;47.964;7.982;2023-01-28T17:45:56;97562.69;;;10.02;57.64
48800;BME280;34611;47.964;7.982;2023-01-28T17:52:56;97563.97;;;9.96;56.81
48800;BME280;34611;47.964;7.982;2023-01-28T17:59:56;97583.25;;;10.05;57.10
48800;BME280;34611;47.964;7.982;2023-01-28T18:06:57;97590.44;;;10.01;57.23
48800;BME280;34611;47.964;7.982;2023-01-28T18:13:57;97581.19;;;9.97;56.91
48800;BME280;34611;47.964;7.982;2023-01-28T18:20:58;97586.47;;;9.96;56.70
48800;BME280;34611;47.964;7.982;2023-01-28T18:27:58;97582.16;;;9.96;56.25
48800;BME280;34611;47.964;7.982;2023-01-28T18:34:58;97594.41;;;9.94;56.18
48800;BME280;34611;47.964;7.982;2023-01-28T18:42:03;97587.53;;;9.93;56.03
48800;BME280;34611;47.964;7.982;2023-01-28T18:49:04;97580.47;;;9.95;55.95
48800;BME280;34611;47.964;7.982;2023-01-28T18:56:04;97593.97;;;10.00;56.21
48800;BME280;34611;47.964;7.982;2023-01-28T19:03:05;97591.16;;;10.03;56.17
48800;BME280;34611;47.964;7.982;2023-01-28T19:10:05;97592.22;;;10.01;56.56
48800;BME280;34611;47.964;7.982;2023-01-28T19:17:06;97591.78;;;10.07;57.05
48800;BME280;34611;47.964;7.982;2023-01-28T19:24:06;97574.94;;;10.00;56.81
48800;BME280;34611;47.964;7.982;2023-01-28T19:31:08;97592.22;;;10.01;56.53
48800;BME280;34611;47.964;7.982;2023-01-28T19:38:09;97586.38;;;9.97;56.44
48800;BME280;34611;47.964;7.982;2023-01-28T19:45:09;97587.84;;;10.01;56.24
48800;BME280;34611;47.964;7.982;2023-01-28T19:52:09;97583.78;;;9.97;56.30
48800;BME280;34611;47.964;7.982;2023-01-28T19:59:10;97596.78;;;9.97;56.08
48800;BME280;34611;47.964;7.982;2023-01-28T20:06:11;97599.38;;;9.97;56.38
48800;BME280;34611;47.964;7.982;2023-01-28T20:13:12;97602.94;;;9.96;56.09
48800;BME280;34611;47.964;7.982;2023-01-28T20:20:12;97611.44;;;9.98;56.19
48800;BME280;34611;47.964;7.982;2023-01-28T20:27:12;97608.94;;;9.97;56.28
48800;BME280;34611;47.964;7.982;2023-01-28T20:34:16;97614.03;;;9.98;56.26
48800;BME280;34611;47.964;7.982;2023-01-28T20:41:18;97618.38;;;9.98;56.21
48800;BME280;34611;47.964;7.982;2023-01-28T20:48:21;97621.81;;;10.11;56.08
48800;BME280;34611;47.964;7.982;2023-01-28T20:55:22;97629.69;;;10.09;57.68
48800;BME280;34611;47.964;7.982;2023-01-28T21:02:23;97628.25;;;10.05;57.27
48800;BME280;34611;47.964;7.982;2023-01-28T21:09:23;97632.53;;;10.06;57.10
48800;BME280;34611;47.964;7.982;2023-01-28T21:16:25;97634.41;;;10.04;56.91
48800;BME280;34611;47.964;7.982;2023-01-28T21:23:25;97632.72;;;10.03;56.92
48800;BME280;34611;47.964;7.982;2023-01-28T21:30:25;97636.03;;;10.05;56.71
48800;BME280;34611;47.964;7.982;2023-01-28T21:37:25;97643.09;;;10.03;56.65
48800;BME280;34611;47.964;7.982;2023-01-28T21:44:26;97645.81;;;10.02;56.93
48800;BME280;34611;47.964;7.982;2023-01-28T21:51:27;97647.47;;;10.03;56.82
48800;BME280;34611;47.964;7.982;2023-01-28T21:58:46;97634.25;;;10.06;56.70
48800;BME280;34611;47.964;7.982;2023-01-28T22:06:05;97633.66;;;10.02;56.84
48800;BME280;34611;47.964;7.982;2023-01-28T22:13:05;97635.13;;;10.06;56.63
48800;BME280;34611;47.964;7.982;2023-01-28T22:20:08;97655.16;;;10.17;56.28
48800;BME280;34611;47.964;7.982;2023-01-28T22:27:08;97644.84;;;10.16;58.90
48800;BME280;34611;47.964;7.982;2023-01-28T22:34:08;97642.59;;;10.11;58.00
48800;BME280;34611;47.964;7.982;2023-01-28T22:41:10;97642.59;;;10.11;57.46
48800;BME280;34611;47.964;7.982;2023-01-28T22:48:10;97647.16;;;10.07;57.48
48800;BME280;34611;47.964;7.982;2023-01-28T22:55:10;97645.81;;;10.15;57.62
48800;BME280;34611;47.964;7.982;2023-01-28T23:02:10;97639.03;;;10.12;57.72
48800;BME280;34611;47.964;7.982;2023-01-28T23:09:11;97650.38;;;10.11;57.59
48800;BME280;34611;47.964;7.982;2023-01-28T23:16:11;97642.69;;;10.09;57.33
48800;BME280;34611;47.964;7.982;2023-01-28T23:23:30;97639.25;;;10.09;57.20
48800;BME280;34611;47.964;7.982;2023-01-28T23:31:08;97630.53;;;10.10;57.00
48800;BME280;34611;47.964;7.982;2023-01-28T23:38:08;97640.91;;;10.10;57.26
48800;BME280;34611;47.964;7.982;2023-01-28T23:45:09;97637.50;;;10.09;57.07
48800;BME280;34611;47.964;7.982;2023-01-28T23:52:10;97643.41;;;10.11;57.20
48800;BME280;34611;47.964;7.982;2023-01-28T23:59:10;97636.56;;;10.10;57.03
